createdAt,value
2018-09-10T00:02:06.512Z,68.00
2018-09-10T00:04:33.767Z,67.82
2018-09-10T00:07:01.323Z,67.53
2018-09-10T00:09:28.564Z,66.90
2018-09-10T00:11:55.791Z,66.03
2018-09-10T00:14:22.966Z,65.92
2018-09-10T00:16:50.169Z,65.75
2018-09-10T00:19:18.406Z,65.82
2018-09-10T00:21:45.618Z,65.04
2018-09-10T00:24:12.761Z,65.18
2018-09-10T00:26:39.935Z,64.80
2018-09-10T00:29:07.106Z,65.39
2018-09-10T00:31:34.370Z,65.19
2018-09-10T00:34:01.566Z,65.63
2018-09-10T00:36:28.793Z,64.57
2018-09-10T00:38:55.981Z,65.04
2018-09-10T00:41:23.138Z,65.81
2018-09-10T00:43:50.649Z,65.32
2018-09-10T00:46:17.835Z,65.57
2018-09-10T00:48:44.986Z,65.83
2018-09-10T00:51:12.134Z,65.83
2018-09-10T00:53:39.290Z,65.67
2018-09-10T00:56:06.526Z,66.61
2018-09-10T00:58:33.773Z,66.32
2018-09-10T01:01:00.934Z,65.50
2018-09-10T01:03:28.122Z,66.00
2018-09-10T01:05:55.280Z,65.71
2018-09-10T01:08:22.740Z,66.27
2018-09-10T01:10:50.038Z,65.20
2018-09-10T01:13:17.229Z,66.07
2018-09-10T01:15:44.441Z,66.08
2018-09-10T01:18:11.684Z,66.45
2018-09-10T01:20:38.810Z,66.26
2018-09-10T01:23:05.986Z,67.02
2018-09-10T01:25:33.118Z,66.50
2018-09-10T01:28:00.357Z,66.89
2018-09-10T01:30:27.509Z,66.50
2018-09-10T01:32:54.739Z,66.65
2018-09-10T01:35:21.882Z,65.59
2018-09-10T01:37:49.137Z,66.30
2018-09-10T01:40:16.266Z,67.21
2018-09-10T01:42:43.450Z,67.81
2018-09-10T01:45:10.895Z,68.11
2018-09-10T01:47:38.074Z,68.54
2018-09-10T01:50:05.192Z,68.46
2018-09-10T01:52:32.359Z,68.55
2018-09-10T01:54:59.497Z,67.78
2018-09-10T01:57:26.736Z,67.88
2018-09-10T01:59:54.019Z,67.45
2018-09-10T02:02:21.282Z,67.55
2018-09-10T02:04:48.482Z,67.40
2018-09-10T02:07:16.262Z,66.57
2018-09-10T02:09:43.450Z,67.10
2018-09-10T02:12:16.387Z,66.65
2018-09-10T02:14:43.649Z,67.59
2018-09-10T02:17:10.861Z,67.13
2018-09-10T02:19:38.031Z,68.37
2018-09-10T02:22:05.413Z,68.28
2018-09-10T02:24:32.668Z,67.46
2018-09-10T02:26:59.788Z,68.69
2018-09-10T02:29:26.997Z,68.26
2018-09-10T02:31:54.141Z,67.33
2018-09-10T02:34:21.441Z,67.05
2018-09-10T02:36:48.608Z,67.70
2018-09-10T02:39:15.783Z,68.00
2018-09-10T02:41:43.722Z,67.54
2018-09-10T02:44:12.017Z,68.04
2018-09-10T02:46:39.208Z,68.41
2018-09-10T02:49:06.365Z,69.07
2018-09-10T02:51:33.544Z,68.41
2018-09-10T02:54:00.761Z,67.99
2018-09-10T02:56:27.916Z,68.75
2018-09-10T02:58:55.162Z,68.00
2018-09-10T03:01:22.344Z,68.53
2018-09-10T03:03:49.617Z,69.02
2018-09-10T03:06:16.764Z,69.60
2018-09-10T03:08:43.872Z,69.23
2018-09-10T03:11:11.062Z,67.95
2018-09-10T03:13:38.218Z,68.85
2018-09-10T03:16:05.373Z,69.62
2018-09-10T03:18:32.480Z,69.05
2018-09-10T03:20:59.649Z,68.55
2018-09-10T03:23:26.770Z,68.92
2018-09-10T03:25:53.961Z,69.49
2018-09-10T03:28:21.481Z,69.59
2018-09-10T03:30:49.036Z,70.71
2018-09-10T03:33:16.293Z,69.81
2018-09-10T03:35:43.437Z,70.10
2018-09-10T03:38:10.667Z,69.87
2018-09-10T03:40:37.838Z,69.56
2018-09-10T03:43:05.249Z,68.74
2018-09-10T03:45:32.425Z,69.44
2018-09-10T03:47:59.677Z,70.80
2018-09-10T03:50:26.848Z,69.83
2018-09-10T03:52:54.043Z,69.42
2018-09-10T03:55:21.274Z,69.32
2018-09-10T03:57:48.427Z,69.48
2018-09-10T04:00:15.672Z,69.14
2018-09-10T04:02:42.943Z,67.51
2018-09-10T04:05:10.033Z,67.50
2018-09-10T04:07:37.452Z,67.58
2018-09-10T04:10:04.562Z,67.93
2018-09-10T04:12:31.770Z,69.78
2018-09-10T04:14:58.980Z,69.94
2018-09-10T04:17:26.211Z,69.62
2018-09-10T04:19:58.239Z,69.96
2018-09-10T04:22:25.387Z,69.97
2018-09-10T04:24:52.619Z,69.75
2018-09-10T04:27:19.818Z,69.00
2018-09-10T04:29:46.988Z,69.26
2018-09-10T04:32:14.209Z,69.71
2018-09-10T04:34:41.378Z,69.19
2018-09-10T04:37:08.531Z,69.15
2018-09-10T04:39:35.702Z,69.01
2018-09-10T04:42:02.889Z,68.96
2018-09-10T04:44:30.024Z,69.26
2018-09-10T04:46:57.174Z,69.55
2018-09-10T04:49:24.333Z,69.38
2018-09-10T04:51:52.166Z,69.12
2018-09-10T04:54:19.343Z,68.56
2018-09-10T04:56:46.517Z,69.47
2018-09-10T04:59:13.720Z,69.02
2018-09-10T05:01:40.894Z,69.94
2018-09-10T05:04:09.047Z,69.22
2018-09-10T05:06:36.211Z,69.16
2018-09-10T05:09:04.985Z,69.16
2018-09-10T05:11:33.018Z,69.01
2018-09-10T05:14:00.177Z,68.89
2018-09-10T05:16:27.315Z,69.60
2018-09-10T05:18:54.430Z,69.51
2018-09-10T05:21:21.648Z,68.65
2018-09-10T05:23:48.880Z,69.35
2018-09-10T05:26:16.032Z,69.32
2018-09-10T05:28:43.397Z,68.42
2018-09-10T05:31:10.613Z,68.49
2018-09-10T05:33:37.737Z,68.44
2018-09-10T05:36:04.895Z,69.24
2018-09-10T05:38:32.430Z,69.36
2018-09-10T05:40:59.645Z,69.43
2018-09-10T05:43:26.911Z,68.70
2018-09-10T05:45:54.108Z,67.94
2018-09-10T05:48:21.361Z,69.03
2018-09-10T05:50:49.495Z,68.93
2018-09-10T05:53:16.678Z,69.58
2018-09-10T05:55:44.084Z,68.95
2018-09-10T05:58:11.259Z,68.87
2018-09-10T06:00:38.439Z,68.96
2018-09-10T06:03:05.746Z,68.87
2018-09-10T06:05:32.891Z,68.79
2018-09-10T06:08:00.122Z,68.81
2018-09-10T06:10:27.293Z,67.61
2018-09-10T06:12:54.433Z,68.63
2018-09-10T06:15:21.658Z,68.74
2018-09-10T06:17:48.896Z,68.56
2018-09-10T06:20:16.720Z,68.46
2018-09-10T06:22:43.878Z,68.52
2018-09-10T06:25:10.991Z,67.87
2018-09-10T06:27:38.226Z,67.65
2018-09-10T06:30:05.452Z,67.04
2018-09-10T06:32:32.749Z,67.07
2018-09-10T06:35:00.101Z,66.80
2018-09-10T06:37:27.301Z,66.79
2018-09-10T06:39:54.477Z,66.47
2018-09-10T06:42:21.815Z,67.15
2018-09-10T06:44:50.010Z,66.35
2018-09-10T06:47:17.252Z,66.24
2018-09-10T06:49:44.458Z,65.96
2018-09-10T06:52:11.691Z,65.94
2018-09-10T06:54:39.583Z,66.15
2018-09-10T06:57:06.783Z,66.20
2018-09-10T06:59:34.097Z,65.78
2018-09-10T07:02:01.716Z,64.92
2018-09-10T07:04:29.250Z,64.92
2018-09-10T07:06:56.463Z,64.02
2018-09-10T07:09:24.103Z,64.16
2018-09-10T07:11:51.551Z,63.58
2018-09-10T07:14:19.781Z,63.74
2018-09-10T07:16:47.002Z,63.23
2018-09-10T07:19:14.239Z,62.75
2018-09-10T07:21:41.477Z,62.85
2018-09-10T07:24:08.982Z,62.49
2018-09-10T07:26:36.116Z,62.21
2018-09-10T07:29:03.305Z,62.12
2018-09-10T07:31:30.645Z,62.11
2018-09-10T07:33:57.954Z,61.22
2018-09-10T07:36:25.273Z,61.15
2018-09-10T07:38:52.583Z,60.56
2018-09-10T07:41:19.966Z,61.34
2018-09-10T07:43:47.311Z,60.66
2018-09-10T07:46:14.481Z,59.02
2018-09-10T07:48:41.636Z,59.82
2018-09-10T07:51:08.873Z,59.10
2018-09-10T07:53:36.095Z,59.34
2018-09-10T07:56:03.352Z,58.42
2018-09-10T07:58:30.602Z,58.69
2018-09-10T08:00:57.769Z,58.29
2018-09-10T08:03:25.274Z,57.75
2018-09-10T08:05:52.521Z,57.74
2018-09-10T08:08:19.872Z,57.39
2018-09-10T08:10:47.213Z,57.26
2018-09-10T08:13:14.394Z,57.10
2018-09-10T08:15:41.587Z,57.81
2018-09-10T08:18:08.825Z,57.86
2018-09-10T08:20:36.001Z,57.71
2018-09-10T08:23:03.240Z,57.09
2018-09-10T08:25:30.394Z,57.17
2018-09-10T08:27:58.281Z,56.52
2018-09-10T08:30:25.539Z,56.40
2018-09-10T08:32:52.638Z,56.00
2018-09-10T08:35:19.814Z,56.35
2018-09-10T08:37:47.401Z,56.26
2018-09-10T08:40:15.568Z,56.48
2018-09-10T08:42:43.307Z,56.29
2018-09-10T08:45:10.440Z,55.99
2018-09-10T08:47:37.705Z,56.59
2018-09-10T08:50:05.906Z,56.24
2018-09-10T08:52:33.068Z,56.13
2018-09-10T08:55:00.725Z,55.42
2018-09-10T08:57:28.031Z,55.41
2018-09-10T08:59:55.194Z,55.12
2018-09-10T09:02:22.458Z,54.51
2018-09-10T09:04:49.805Z,54.21
2018-09-10T09:07:17.121Z,53.65
2018-09-10T09:09:44.420Z,53.43
2018-09-10T09:12:11.622Z,53.78
2018-09-10T09:14:38.875Z,52.17
2018-09-10T09:17:06.287Z,52.43
2018-09-10T09:19:33.474Z,52.04
2018-09-10T09:22:00.770Z,52.38
2018-09-10T09:24:28.026Z,50.39
2018-09-10T09:26:55.238Z,49.21
2018-09-10T09:29:22.459Z,48.68
2018-09-10T09:31:49.760Z,48.97
2018-09-10T09:34:17.996Z,48.77
2018-09-10T09:36:51.091Z,46.81
2018-09-10T09:39:23.934Z,46.49
2018-09-10T09:44:04.596Z,46.25
2018-09-10T09:46:31.930Z,45.75
2018-09-10T09:48:59.217Z,46.67
2018-09-10T09:51:26.401Z,46.54
2018-09-10T09:53:54.622Z,45.39
2018-09-10T09:56:22.669Z,45.35
2018-09-10T09:58:50.743Z,44.47
2018-09-10T10:01:27.355Z,43.39
2018-09-10T10:03:55.371Z,42.75
2018-09-10T10:06:23.402Z,41.74
2018-09-10T10:08:51.146Z,41.81
2018-09-10T10:11:18.791Z,41.74
2018-09-10T10:13:46.689Z,42.17
2018-09-10T10:16:14.020Z,41.02
2018-09-10T10:18:41.124Z,40.93
2018-09-10T10:21:08.605Z,40.57
2018-09-10T10:23:35.819Z,40.79
2018-09-10T10:26:04.479Z,41.59
2018-09-10T10:28:32.365Z,41.03
2018-09-10T10:30:59.633Z,40.34
2018-09-10T10:33:27.059Z,41.27
2018-09-10T10:35:54.658Z,40.20
2018-09-10T10:38:21.867Z,40.30
2018-09-10T10:40:50.285Z,39.92
2018-09-10T10:43:17.586Z,40.76
2018-09-10T10:45:44.766Z,39.53
2018-09-10T10:48:11.926Z,39.61
2018-09-10T10:50:39.236Z,40.31
2018-09-10T10:53:06.573Z,40.32
2018-09-10T10:55:33.899Z,40.09
2018-09-10T10:58:02.156Z,40.73
2018-09-10T11:00:30.168Z,40.69
2018-09-10T11:02:57.764Z,39.85
2018-09-10T11:05:25.036Z,39.08
2018-09-10T11:07:52.242Z,40.01
2018-09-10T11:10:19.644Z,39.66
2018-09-10T11:12:46.812Z,39.43
2018-09-10T11:15:14.030Z,39.32
2018-09-10T11:17:41.372Z,38.43
2018-09-10T11:20:08.866Z,39.33
2018-09-10T11:22:36.083Z,39.48
2018-09-10T11:25:03.467Z,39.40
2018-09-10T11:27:30.677Z,38.59
2018-09-10T11:29:58.089Z,37.82
2018-09-10T11:32:25.432Z,38.54
2018-09-10T11:34:55.339Z,37.15
2018-09-10T11:37:22.477Z,37.33
2018-09-10T11:39:49.681Z,37.90
2018-09-10T11:42:16.807Z,37.28
2018-09-10T11:44:43.984Z,36.71
2018-09-10T11:47:11.862Z,36.60
2018-09-10T11:49:39.303Z,36.74
2018-09-10T11:52:06.459Z,36.88
2018-09-10T11:54:34.251Z,35.92
2018-09-10T11:57:01.670Z,36.11
2018-09-10T11:59:29.072Z,36.12
2018-09-10T12:01:57.036Z,36.13
2018-09-10T12:04:24.383Z,35.12
2018-09-10T12:06:51.592Z,34.60
2018-09-10T12:09:18.743Z,35.28
2018-09-10T12:11:46.946Z,33.77
2018-09-10T12:14:14.169Z,34.03
2018-09-10T12:16:41.344Z,34.48
2018-09-10T12:19:08.567Z,34.04
2018-09-10T12:21:35.976Z,32.86
2018-09-10T12:24:03.148Z,31.94
2018-09-10T12:26:30.573Z,31.99
2018-09-10T12:28:57.853Z,31.41
2018-09-10T12:31:25.089Z,31.90
2018-09-10T12:33:52.327Z,31.41
2018-09-10T12:36:19.637Z,30.52
2018-09-10T12:38:46.793Z,31.16
2018-09-10T12:41:14.057Z,31.22
2018-09-10T12:43:41.402Z,30.18
2018-09-10T12:46:08.625Z,29.98
2018-09-10T12:48:35.970Z,30.29
2018-09-10T12:51:03.179Z,30.67
2018-09-10T12:53:30.822Z,29.54
2018-09-10T12:55:58.141Z,29.81
2018-09-10T12:58:25.465Z,29.39
2018-09-10T13:00:53.511Z,30.08
2018-09-10T13:03:20.701Z,28.73
2018-09-10T13:05:48.057Z,29.86
2018-09-10T13:08:15.362Z,30.20
2018-09-10T13:10:43.602Z,30.25
2018-09-10T13:13:10.942Z,30.37
2018-09-10T13:15:38.232Z,30.29
2018-09-10T13:18:05.663Z,30.08
2018-09-10T13:20:32.908Z,29.96
2018-09-10T13:23:00.128Z,30.66
2018-09-10T13:25:27.359Z,31.33
2018-09-10T13:27:54.669Z,30.98
2018-09-10T13:30:22.014Z,30.19
2018-09-10T13:32:49.386Z,30.92
2018-09-10T13:35:17.292Z,31.12
2018-09-10T13:37:44.701Z,30.20
2018-09-10T13:40:12.022Z,31.16
2018-09-10T13:42:40.126Z,30.53
2018-09-10T13:45:07.367Z,31.43
2018-09-10T13:47:34.601Z,31.23
2018-09-10T13:52:38.750Z,31.79
2018-09-10T13:55:06.145Z,30.46
2018-09-10T13:57:33.410Z,32.03
2018-09-10T14:00:00.614Z,31.36
2018-09-10T14:02:27.819Z,30.66
2018-09-10T14:04:55.196Z,31.51
2018-09-10T14:07:22.848Z,30.37
2018-09-10T14:09:50.090Z,30.38
2018-09-10T14:12:17.384Z,30.68
2018-09-10T14:14:44.683Z,31.52
2018-09-10T14:17:12.153Z,31.25
2018-09-10T14:19:39.444Z,31.70
2018-09-10T14:22:07.726Z,31.07
2018-09-10T14:24:35.040Z,30.95
2018-09-10T14:27:02.698Z,31.26
2018-09-10T14:29:29.870Z,30.07
2018-09-10T14:31:57.113Z,29.45
2018-09-10T14:34:24.318Z,29.70
2018-09-10T14:36:51.553Z,30.68
2018-09-10T14:39:18.814Z,30.10
2018-09-10T14:41:46.114Z,31.28
2018-09-10T14:44:13.621Z,30.57
2018-09-10T14:46:40.901Z,30.13
2018-09-10T14:49:08.496Z,30.94
2018-09-10T14:51:35.742Z,29.97
2018-09-10T14:54:03.002Z,30.71
2018-09-10T14:56:30.245Z,30.27
2018-09-10T14:58:57.400Z,31.21
2018-09-10T15:01:24.579Z,31.71
2018-09-10T15:03:51.788Z,31.09
2018-09-10T15:06:19.018Z,30.50
2018-09-10T15:08:46.187Z,30.45
2018-09-10T15:11:13.619Z,29.71
2018-09-10T15:13:41.075Z,29.99
2018-09-10T15:16:08.396Z,30.79
2018-09-10T15:18:35.785Z,30.59
2018-09-10T15:21:02.961Z,30.42
2018-09-10T15:23:30.613Z,31.12
2018-09-10T15:25:57.843Z,31.64
2018-09-10T15:28:25.286Z,30.52
2018-09-10T15:30:52.429Z,30.51
2018-09-10T15:33:19.782Z,31.25
2018-09-10T15:35:46.983Z,30.60
2018-09-10T15:38:15.030Z,30.96
2018-09-10T15:40:42.285Z,30.91
2018-09-10T15:43:09.450Z,31.93
2018-09-10T15:45:37.123Z,32.24
2018-09-10T15:48:05.085Z,32.36
2018-09-10T15:50:33.013Z,33.13
2018-09-10T15:53:00.309Z,32.13
2018-09-10T15:55:27.641Z,33.49
2018-09-10T15:57:55.605Z,33.13
2018-09-10T16:00:22.799Z,32.84
2018-09-10T16:02:50.085Z,33.78
2018-09-10T16:05:17.415Z,33.91
2018-09-10T16:07:44.634Z,34.58
2018-09-10T16:10:11.973Z,33.91
2018-09-10T16:12:39.185Z,34.64
2018-09-10T16:15:06.447Z,34.52
2018-09-10T16:17:33.788Z,35.01
2018-09-10T16:20:01.784Z,35.23
2018-09-10T16:22:29.689Z,35.38
2018-09-10T16:24:56.934Z,35.60
2018-09-10T16:27:24.254Z,34.98
2018-09-10T16:29:51.530Z,36.33
2018-09-10T16:32:18.720Z,36.13
2018-09-10T16:34:46.011Z,36.78
2018-09-10T16:37:13.286Z,37.10
2018-09-10T16:39:40.509Z,37.34
2018-09-10T16:42:08.387Z,37.68
2018-09-10T16:44:35.696Z,36.86
2018-09-10T16:47:03.036Z,37.13
2018-09-10T16:49:30.316Z,37.12
2018-09-10T16:51:57.739Z,38.02
2018-09-10T16:54:24.950Z,37.39
2018-09-10T16:56:52.359Z,38.03
2018-09-10T16:59:20.537Z,38.34
2018-09-10T17:01:47.972Z,37.62
2018-09-10T17:04:16.139Z,37.86
2018-09-10T17:06:43.377Z,37.45
2018-09-10T17:09:10.539Z,38.51
2018-09-10T17:11:37.853Z,39.23
2018-09-10T17:14:05.509Z,39.44
2018-09-10T17:16:32.777Z,38.33
2018-09-10T17:19:00.220Z,38.59
2018-09-10T17:21:27.536Z,38.69
2018-09-10T17:23:54.797Z,39.21
2018-09-10T17:26:22.075Z,39.52
2018-09-10T17:28:49.494Z,39.09
2018-09-10T17:31:16.670Z,40.07
2018-09-10T17:33:43.832Z,40.00
2018-09-10T17:36:11.419Z,39.97
2018-09-10T17:38:38.928Z,40.21
2018-09-10T17:41:07.188Z,40.24
2018-09-10T17:43:34.428Z,40.85
2018-09-10T17:46:01.695Z,40.65
2018-09-10T17:48:28.983Z,41.07
2018-09-10T17:50:56.971Z,41.42
2018-09-10T17:53:24.387Z,41.52
2018-09-10T17:55:51.559Z,40.84
2018-09-10T17:58:18.966Z,41.34
2018-09-10T18:00:47.020Z,41.41
2018-09-10T18:03:14.148Z,42.02
2018-09-10T18:05:42.035Z,42.18
2018-09-10T18:08:09.252Z,42.82
2018-09-10T18:10:36.889Z,42.34
2018-09-10T18:13:04.717Z,42.71
2018-09-10T18:15:32.115Z,43.54
2018-09-10T18:17:59.337Z,43.05
2018-09-10T18:20:29.180Z,43.21
2018-09-10T18:22:56.347Z,43.63
2018-09-10T18:25:23.534Z,43.94
2018-09-10T18:27:50.780Z,44.70
2018-09-10T18:30:17.968Z,44.46
2018-09-10T18:32:45.231Z,46.22
2018-09-10T18:35:12.887Z,46.74
2018-09-10T18:37:40.369Z,46.42
2018-09-10T18:40:07.643Z,46.75
2018-09-10T18:42:34.846Z,47.88
2018-09-10T18:45:02.149Z,47.24
2018-09-10T18:47:29.351Z,48.04
2018-09-10T18:49:56.894Z,46.92
2018-09-10T18:52:24.126Z,47.10
2018-09-10T18:54:51.659Z,47.10
2018-09-10T18:57:18.853Z,47.02
2018-09-10T18:59:46.030Z,47.71
2018-09-10T19:02:13.278Z,47.89
2018-09-10T19:04:40.590Z,48.34
2018-09-10T19:07:07.881Z,47.93
2018-09-10T19:09:35.098Z,47.19
2018-09-10T19:12:02.408Z,47.48
2018-09-10T19:14:30.213Z,48.10
2018-09-10T19:16:57.454Z,48.00
2018-09-10T19:19:24.620Z,47.56
2018-09-10T19:21:52.364Z,49.43
2018-09-10T19:24:20.309Z,49.79
2018-09-10T19:26:47.559Z,50.89
2018-09-10T19:29:14.875Z,51.41
2018-09-10T19:31:42.053Z,51.71
2018-09-10T19:34:09.476Z,51.58
2018-09-10T19:36:36.680Z,51.07
2018-09-10T19:39:06.641Z,50.29
2018-09-10T19:41:34.664Z,51.53
2018-09-10T19:44:01.960Z,52.22
2018-09-10T19:46:29.184Z,52.38
2018-09-10T19:48:56.503Z,52.84
2018-09-10T19:51:23.756Z,52.75
2018-09-10T19:53:50.920Z,53.72
2018-09-10T19:56:18.096Z,53.09
2018-09-10T19:58:45.345Z,53.53
2018-09-10T20:01:12.860Z,53.15
2018-09-10T20:03:40.399Z,52.43
2018-09-10T20:06:07.872Z,52.01
2018-09-10T20:08:35.098Z,52.17
2018-09-10T20:11:02.362Z,53.21
2018-09-10T20:13:29.614Z,52.37
2018-09-10T20:15:56.876Z,52.45
2018-09-10T20:18:24.273Z,53.27
2018-09-10T20:20:51.588Z,53.90
2018-09-10T20:23:18.932Z,53.81
2018-09-10T20:25:46.162Z,55.17
2018-09-10T20:28:13.423Z,55.42
2018-09-10T20:30:40.613Z,55.89
2018-09-10T20:33:07.978Z,56.11
2018-09-10T20:35:35.501Z,56.02
2018-09-10T20:38:02.684Z,55.93
2018-09-10T20:40:29.936Z,56.07
2018-09-10T20:42:57.300Z,56.50
2018-09-10T20:45:24.529Z,55.99
2018-09-10T20:47:51.786Z,56.34
2018-09-10T20:50:19.018Z,55.78
2018-09-10T20:52:46.202Z,55.19
2018-09-10T20:55:13.466Z,56.21
2018-09-10T20:57:40.866Z,56.70
2018-09-10T21:00:08.070Z,56.76
2018-09-10T21:02:35.327Z,57.47
2018-09-10T21:05:02.938Z,57.53
2018-09-10T21:07:30.383Z,58.72
2018-09-10T21:09:57.585Z,59.18
2018-09-10T21:12:25.728Z,58.94
2018-09-10T21:14:53.038Z,58.85
2018-09-10T21:17:20.355Z,59.08
2018-09-10T21:19:47.731Z,60.37
2018-09-10T21:22:14.930Z,60.43
2018-09-10T21:24:42.122Z,61.07
2018-09-10T21:27:09.376Z,61.12
2018-09-10T21:29:36.665Z,60.92
2018-09-10T21:32:03.876Z,60.92
2018-09-10T21:34:31.025Z,62.02
2018-09-10T21:36:58.276Z,61.63
2018-09-10T21:39:25.443Z,61.46
2018-09-10T21:41:52.676Z,61.44
2018-09-10T21:44:19.997Z,61.92
2018-09-10T21:46:47.234Z,60.99
2018-09-10T21:49:14.338Z,60.34
2018-09-10T21:51:41.587Z,59.33
2018-09-10T21:54:08.815Z,57.05
2018-09-10T21:56:36.146Z,56.62
2018-09-10T21:59:03.474Z,57.41
2018-09-10T22:01:30.703Z,56.63
2018-09-10T22:03:57.868Z,56.17
2018-09-10T22:06:25.106Z,56.42
2018-09-10T22:08:52.297Z,56.11
2018-09-10T22:11:19.458Z,56.64
2018-09-10T22:13:46.710Z,56.60
2018-09-10T22:16:13.839Z,57.27
2018-09-10T22:18:40.982Z,58.89
2018-09-10T22:21:08.173Z,59.25
2018-09-10T22:23:35.513Z,59.38
2018-09-10T22:26:02.705Z,58.20
2018-09-10T22:28:29.857Z,58.00
2018-09-10T22:30:57.062Z,57.17
2018-09-10T22:33:24.304Z,57.08
2018-09-10T22:35:51.441Z,57.06
2018-09-10T22:38:18.624Z,57.24
2018-09-10T22:40:45.786Z,58.70
2018-09-10T22:43:13.118Z,59.70
2018-09-10T22:45:40.277Z,60.52
2018-09-10T22:48:07.577Z,60.90
2018-09-10T22:50:34.737Z,61.16
2018-09-10T22:53:01.930Z,62.14
2018-09-10T22:55:29.099Z,61.74
2018-09-10T22:57:56.294Z,62.38
2018-09-10T23:00:23.461Z,62.90
2018-09-10T23:02:50.568Z,62.66
2018-09-10T23:05:17.919Z,62.40
2018-09-10T23:07:45.769Z,62.51
2018-09-10T23:10:12.985Z,62.34
2018-09-10T23:12:40.152Z,62.54
2018-09-10T23:15:07.343Z,62.43
2018-09-10T23:17:35.318Z,63.08
2018-09-10T23:20:02.503Z,63.72
2018-09-10T23:22:29.671Z,63.26
2018-09-10T23:24:56.833Z,63.46
2018-09-10T23:27:24.046Z,64.02
2018-09-10T23:29:51.234Z,63.68
2018-09-10T23:32:18.402Z,63.43
2018-09-10T23:34:45.589Z,63.84
2018-09-10T23:37:12.765Z,63.13
2018-09-10T23:39:39.953Z,64.38
2018-09-10T23:42:07.100Z,63.43
2018-09-10T23:44:34.239Z,63.55
2018-09-10T23:47:01.450Z,63.69
2018-09-10T23:49:28.762Z,63.32
2018-09-10T23:51:55.965Z,63.50
2018-09-10T23:54:23.183Z,63.62
2018-09-10T23:56:50.424Z,63.62
2018-09-10T23:59:17.953Z,64.60
